Time;durP1;ratioP1;P1;durP2;ratioP2;P2;SDS_P1;SDS_P2;PMS_P1;PMS_P2;Temp;Humidity;BMP_temperature;BMP_pressure;BME280_temperature;BME280_humidity;BME280_pressure;Samples;Min_cycle;Max_cycle;Signal;HPM_P1;HPM_P2
2021/12/31 00:00:26;;;;;;;3.85;1.60;;;;;;;17.44;63.57;101708.84;4949157;28;114904;-69
2021/12/31 00:02:53;;;;;;;6.22;1.80;;;;;;;17.44;63.44;101703.50;4949428;28;123818;-69
2021/12/31 00:05:21;;;;;;;2.58;1.60;;;;;;;17.44;63.27;101711.53;4948119;28;122744;-69
2021/12/31 00:07:48;;;;;;;2.70;1.23;;;;;;;17.44;63.18;101708.84;4931943;28;113380;-69
2021/12/31 00:10:15;;;;;;;4.55;1.80;;;;;;;17.44;63.44;101700.81;4949042;28;115321;-71
2021/12/31 00:12:43;;;;;;;3.22;1.40;;;;;;;17.43;63.46;101701.78;4948855;28;124463;-69
2021/12/31 00:15:14;;;;;;;5.63;1.70;;;;;;;17.43;63.22;101697.28;4949418;28;124670;-69
2021/12/31 00:17:41;;;;;;;4.18;1.65;;;;;;;17.42;63.28;101700.06;4949347;28;114638;-69
2021/12/31 00:20:16;;;;;;;3.38;1.42;;;;;;;17.42;63.40;101705.41;4947115;28;113749;-69
2021/12/31 00:25:13;;;;;;;3.58;1.80;;;;;;;17.43;63.13;101696.44;4930970;28;122922;-69
2021/12/31 00:27:40;;;;;;;4.20;1.80;;;;;;;17.43;63.27;101696.44;4949115;28;114004;-69
2021/12/31 00:30:09;;;;;;;4.35;1.90;;;;;;;17.42;63.26;101705.41;4949021;28;113971;-71
2021/12/31 00:32:36;;;;;;;2.67;1.67;;;;;;;17.42;63.32;101700.06;4928309;28;122155;-69
2021/12/31 00:35:05;;;;;;;7.65;2.03;;;;;;;17.42;63.34;101700.06;4942269;28;122852;-69
2021/12/31 00:37:34;;;;;;;6.80;1.65;;;;;;;17.42;63.00;101690.22;4947572;28;113777;-69
2021/12/31 00:40:05;;;;;;;2.88;1.55;;;;;;;17.41;62.79;101698.34;4943787;28;115525;-69
2021/12/31 00:42:32;;;;;;;5.10;1.83;;;;;;;17.42;63.05;101702.72;4948679;28;123767;-69
2021/12/31 00:44:59;;;;;;;3.72;1.60;;;;;;;17.42;63.12;101705.41;4946625;28;123825;-70
2021/12/31 00:47:26;;;;;;;2.22;1.50;;;;;;;17.43;62.76;101707.16;4948635;28;115616;-69
2021/12/31 00:49:53;;;;;;;2.95;1.63;;;;;;;17.44;62.78;101708.84;4948462;28;114928;-69
2021/12/31 00:52:21;;;;;;;3.05;1.50;;;;;;;17.43;62.98;101707.16;4947208;28;124728;-70
2021/12/31 00:54:48;;;;;;;3.05;1.30;;;;;;;17.44;62.97;101711.53;4948869;28;123840;-70
2021/12/31 00:57:15;;;;;;;3.75;1.50;;;;;;;17.44;62.89;101712.41;4950386;28;114256;-70
2021/12/31 00:59:42;;;;;;;2.85;1.35;;;;;;;17.45;62.85;101715.94;4948411;28;114142;-69
2021/12/31 01:02:13;;;;;;;4.35;1.63;;;;;;;17.44;62.82;101719.56;4946572;28;122860;-70
2021/12/31 01:04:41;;;;;;;2.03;1.25;;;;;;;17.46;62.70;101712.28;4946440;28;124088;-69
2021/12/31 01:07:08;;;;;;;4.32;1.60;;;;;;;17.48;62.40;101726.50;4915402;28;113397;-69
2021/12/31 01:09:35;;;;;;;2.70;1.30;;;;;;;17.49;62.57;101722.84;4952322;28;114166;-69
2021/12/31 01:12:05;;;;;;;3.35;1.30;;;;;;;17.49;62.57;101712.13;4933184;28;123986;-69
2021/12/31 01:14:38;;;;;;;1.95;1.30;;;;;;;17.49;62.47;101712.13;4950443;28;122581;-69
2021/12/31 01:17:10;;;;;;;7.32;1.50;;;;;;;17.49;62.44;101712.97;4951286;28;114180;-69
2021/12/31 01:19:48;;;;;;;5.07;1.38;;;;;;;17.49;62.44;101717.47;4951328;28;113916;-68
2021/12/31 01:22:27;;;;;;;2.80;1.35;;;;;;;17.49;62.50;101718.34;4946981;28;123776;-69
2021/12/31 01:24:54;;;;;;;2.95;1.30;;;;;;;17.50;62.30;101719.22;4933635;28;123421;-69
2021/12/31 01:27:22;;;;;;;3.50;1.25;;;;;;;17.51;62.31;101726.28;4933909;28;113765;-70
2021/12/31 01:29:49;;;;;;;3.97;1.30;;;;;;;17.52;62.27;101723.53;4951827;28;114411;-69
2021/12/31 01:32:16;;;;;;;2.10;1.33;;;;;;;17.54;62.61;101719.88;4951284;28;124247;-69
2021/12/31 01:34:44;;;;;;;2.63;1.27;;;;;;;17.53;61.96;101719.00;4950059;28;124235;-70
2021/12/31 01:37:11;;;;;;;4.35;1.30;;;;;;;17.53;62.13;101708.31;4951064;28;115126;-69
2021/12/31 01:39:38;;;;;;;3.63;1.50;;;;;;;17.54;61.93;101699.31;4950373;28;114228;-68
2021/12/31 01:42:13;;;;;;;3.92;1.30;;;;;;;17.53;61.99;101710.97;4949654;28;123952;-69
2021/12/31 01:44:56;;;;;;;3.10;1.50;;;;;;;17.53;61.96;101708.31;4948270;28;123845;-69
2021/12/31 01:47:33;;;;;;;2.65;1.23;;;;;;;17.54;61.80;101720.75;4947865;28;113839;-69
2021/12/31 01:50:06;;;;;;;4.18;1.48;;;;;;;17.53;61.94;101719.00;4947256;28;114721;-69
2021/12/31 01:52:35;;;;;;;2.60;1.48;;;;;;;17.53;61.72;101729.72;4950069;28;124180;-69
2021/12/31 01:55:04;;;;;;;3.15;1.33;;;;;;;17.52;61.89;101736.06;4951793;28;124796;-70
2021/12/31 01:57:32;;;;;;;4.18;1.30;;;;;;;17.51;61.83;101731.63;4945873;28;114372;-70
2021/12/31 01:59:59;;;;;;;2.25;1.30;;;;;;;17.52;61.78;101722.66;4951675;28;112982;-70
2021/12/31 02:02:26;;;;;;;3.97;1.40;;;;;;;17.52;61.81;101736.06;4950664;28;123843;-69
2021/12/31 02:04:54;;;;;;;4.53;1.55;;;;;;;17.51;61.85;101727.13;4950086;28;123139;-69
2021/12/31 02:07:21;;;;;;;5.60;1.20;;;;;;;17.52;61.60;101736.91;4931654;28;114549;-70
2021/12/31 02:09:52;;;;;;;4.03;1.25;;;;;;;17.53;61.68;101740.44;4951146;28;113122;-70
2021/12/31 02:12:22;;;;;;;3.63;1.48;;;;;;;17.53;61.64;101735.09;4930096;28;123207;-71
2021/12/31 02:14:51;;;;;;;4.13;1.40;;;;;;;17.54;61.79;101741.28;4950822;28;123108;-69
2021/12/31 02:17:19;;;;;;;3.10;1.30;;;;;;;17.54;61.39;101731.47;4950709;28;114275;-70
2021/12/31 02:20:03;;;;;;;3.63;1.63;;;;;;;17.52;61.55;101733.38;4950395;28;113897;-70
2021/12/31 02:22:33;;;;;;;3.17;1.30;;;;;;;17.52;61.44;101738.72;4944958;28;124225;-69
2021/12/31 02:25:01;;;;;;;4.57;1.40;;;;;;;17.51;61.59;101732.50;4946909;28;124206;-70
2021/12/31 02:27:28;;;;;;;4.18;1.30;;;;;;;17.51;61.49;101731.63;4950676;28;115021;-69
2021/12/31 02:29:55;;;;;;;3.95;1.60;;;;;;;17.50;61.36;101730.78;4949640;28;114920;-69
2021/12/31 02:32:22;;;;;;;3.50;1.55;;;;;;;17.50;61.57;101724.56;4948469;28;124020;-70
2021/12/31 02:34:50;;;;;;;3.40;1.50;;;;;;;17.49;61.54;101733.56;4948717;28;124249;-69
2021/12/31 02:37:17;;;;;;;3.47;1.30;;;;;;;17.49;61.39;101733.56;4947598;28;114073;-69
2021/12/31 02:39:44;;;;;;;5.25;1.52;;;;;;;17.49;61.48;101728.19;4943414;28;112808;-70
2021/12/31 02:42:12;;;;;;;3.75;1.33;;;;;;;17.48;61.28;101721.13;4948327;28;122676;-69
2021/12/31 02:44:40;;;;;;;4.68;1.45;;;;;;;17.49;61.41;101717.47;4951685;28;124287;-70
2021/12/31 02:47:07;;;;;;;2.83;1.17;;;;;;;17.47;61.41;101709.53;4949030;28;114053;-69
2021/12/31 02:49:39;;;;;;;4.70;1.40;;;;;;;17.47;61.21;101716.72;4950273;28;113935;-69
2021/12/31 02:52:11;;;;;;;3.13;1.40;;;;;;;17.46;61.18;101712.28;4948791;28;98174;-69
2021/12/31 02:54:43;;;;;;;5.10;1.42;;;;;;;17.45;61.19;101721.31;4944547;28;123855;-69
2021/12/31 02:57:12;;;;;;;3.58;1.40;;;;;;;17.44;61.41;101719.56;4948306;28;113858;-69
2021/12/31 02:59:40;;;;;;;5.43;1.50;;;;;;;17.44;61.25;101714.22;4950000;28;112994;-69
2021/12/31 03:02:08;;;;;;;4.50;1.50;;;;;;;17.44;61.13;101724.94;4948469;28;123761;-70
2021/12/31 03:04:38;;;;;;;2.92;1.42;;;;;;;17.42;61.24;101708.97;4948423;28;124297;-70
2021/12/31 03:07:09;;;;;;;3.15;1.45;;;;;;;17.42;61.17;101717.00;4949888;28;114076;-69
2021/12/31 03:09:38;;;;;;;4.50;1.63;;;;;;;17.42;61.08;101721.47;4950652;28;113801;-69
2021/12/31 03:12:07;;;;;;;4.13;1.35;;;;;;;17.41;61.30;101707.22;4949217;28;124151;-70
2021/12/31 03:14:37;;;;;;;2.67;1.35;;;;;;;17.41;61.20;101709.06;4949507;28;123955;-69
2021/12/31 03:17:05;;;;;;;3.35;1.45;;;;;;;17.40;61.17;101704.63;4947921;28;114074;-69
2021/12/31 03:19:32;;;;;;;3.08;1.50;;;;;;;17.39;61.10;101705.63;4949715;28;115018;-70
2021/12/31 03:21:59;;;;;;;3.55;1.55;;;;;;;17.39;61.28;101700.25;4948894;28;124053;-70
2021/12/31 03:24:26;;;;;;;1.95;1.40;;;;;;;17.38;61.12;101703.88;4949540;28;124901;-69
2021/12/31 03:26:54;;;;;;;4.15;1.75;;;;;;;17.38;61.18;101706.56;4949466;28;114095;-69
2021/12/31 03:29:21;;;;;;;3.55;1.60;;;;;;;17.37;61.10;101696.81;4929337;28;113178;-70
2021/12/31 03:31:49;;;;;;;4.18;1.40;;;;;;;17.37;60.95;101702.16;4947363;28;122811;-69
2021/12/31 03:34:16;;;;;;;3.85;1.52;;;;;;;17.36;61.10;101698.59;4949542;28;123697;-69
2021/12/31 03:36:44;;;;;;;5.85;1.40;;;;;;;17.37;61.06;101696.81;4949826;28;113868;-69
2021/12/31 03:39:11;;;;;;;4.10;1.70;;;;;;;17.37;61.09;101696.81;4932603;28;112621;-69
2021/12/31 03:41:38;;;;;;;4.80;1.83;;;;;;;17.36;60.88;101695.06;4948387;28;124604;-70
2021/12/31 03:44:06;;;;;;;4.50;1.63;;;;;;;17.36;61.04;101703.09;4949656;28;124711;-69
2021/12/31 03:46:33;;;;;;;4.57;1.50;;;;;;;17.36;61.05;101705.78;4948379;28;113253;-69
2021/12/31 03:49:00;;;;;;;4.35;1.65;;;;;;;17.34;61.01;101696.97;4949655;28;114107;-70
2021/12/31 03:51:27;;;;;;;5.22;1.35;;;;;;;17.35;61.03;101698.69;4948949;28;124481;-69
2021/12/31 03:53:54;;;;;;;3.95;1.35;;;;;;;17.34;60.97;101699.66;4948915;28;123781;-69
2021/12/31 03:56:24;;;;;;;5.55;1.60;;;;;;;17.32;60.95;101692.56;4947049;28;114571;-69
2021/12/31 03:58:51;;;;;;;4.03;1.42;;;;;;;17.31;60.98;101688.19;4947965;28;112876;-69
2021/12/31 04:01:18;;;;;;;6.05;1.50;;;;;;;17.30;61.13;101686.44;4946720;28;123279;-69
2021/12/31 04:03:45;;;;;;;5.15;1.48;;;;;;;17.27;61.04;101678.63;4947878;28;123906;-70
2021/12/31 04:06:12;;;;;;;3.83;1.50;;;;;;;17.25;60.84;101683.22;4948726;28;115425;-69
2021/12/31 04:08:39;;;;;;;3.03;1.67;;;;;;;17.24;60.92;101681.47;4947699;28;113821;-69
2021/12/31 04:11:06;;;;;;;4.03;1.55;;;;;;;17.23;60.95;101679.72;4948874;28;124371;-70
2021/12/31 04:13:33;;;;;;;3.78;1.80;;;;;;;17.22;60.75;101691.41;4948479;28;123819;-69
2021/12/31 04:16:00;;;;;;;4.30;1.63;;;;;;;17.21;60.83;101680.78;4948122;28;116399;-70
2021/12/31 04:18:28;;;;;;;4.68;1.58;;;;;;;17.20;60.87;101685.28;4949362;28;113956;-69
2021/12/31 04:20:57;;;;;;;3.17;1.70;;;;;;;17.19;61.02;101683.53;4948224;28;125307;-70
2021/12/31 04:23:36;;;;;;;4.40;1.70;;;;;;;17.19;60.77;101683.53;4929279;28;123137;-69
2021/12/31 04:26:05;;;;;;;2.78;1.42;;;;;;;17.16;60.79;101683.75;4947614;28;114435;-67
2021/12/31 04:28:32;;;;;;;4.20;1.67;;;;;;;17.15;60.91;101687.38;4947430;28;113515;-67
2021/12/31 04:31:00;;;;;;;4.63;1.65;;;;;;;17.14;60.71;101685.66;4947728;28;123653;-68
2021/12/31 04:33:27;;;;;;;5.28;1.70;;;;;;;17.14;60.95;101674.94;4946617;28;123794;-68
2021/12/31 04:35:54;;;;;;;5.13;1.50;;;;;;;17.13;60.76;101674.06;4949104;28;114418;-68
2021/12/31 04:38:21;;;;;;;3.35;1.45;;;;;;;17.13;60.79;101667.84;4948742;28;116269;-68
2021/12/31 04:40:48;;;;;;;3.90;1.67;;;;;;;17.13;60.86;101678.56;4948469;28;123987;-68
2021/12/31 04:43:15;;;;;;;4.85;1.48;;;;;;;17.13;61.00;101667.84;4950211;28;124507;-68
2021/12/31 04:45:42;;;;;;;3.88;1.73;;;;;;;17.13;60.77;101667.84;4932203;28;113085;-68
2021/12/31 04:48:09;;;;;;;5.38;1.70;;;;;;;17.11;60.99;101662.59;4952325;28;113696;-68
2021/12/31 04:50:37;;;;;;;5.60;1.70;;;;;;;17.12;61.06;101660.75;4949868;28;123316;-68
2021/12/31 04:53:04;;;;;;;5.32;1.90;;;;;;;17.12;60.95;101658.09;4950287;28;122899;-68
2021/12/31 04:55:32;;;;;;;4.78;1.70;;;;;;;17.12;61.11;101663.44;4951908;28;114807;-69
2021/12/31 04:57:59;;;;;;;7.47;1.80;;;;;;;17.10;61.05;101662.69;4952076;28;115728;-68
2021/12/31 05:00:26;;;;;;;4.40;1.90;;;;;;;17.09;61.09;101661.81;4950879;28;124189;-68
2021/12/31 05:02:53;;;;;;;4.85;1.70;;;;;;;17.11;61.08;101664.41;4951330;28;124801;-69
2021/12/31 05:05:21;;;;;;;4.68;1.80;;;;;;;17.11;60.90;101664.41;4951914;28;114361;-69
2021/12/31 05:07:48;;;;;;;5.90;1.90;;;;;;;17.11;61.02;101675.13;4948359;28;114356;-68
2021/12/31 05:10:17;;;;;;;7.85;1.90;;;;;;;17.11;60.87;101672.44;4951028;28;124605;-68
2021/12/31 05:12:45;;;;;;;2.95;1.77;;;;;;;17.11;61.02;101670.63;4948941;28;124016;-68
2021/12/31 05:15:12;;;;;;;4.93;1.88;;;;;;;17.12;60.97;101671.47;4951880;28;114244;-68
2021/12/31 05:17:39;;;;;;;4.93;1.83;;;;;;;17.12;61.08;101666.13;4950467;28;114744;-68
2021/12/31 05:20:06;;;;;;;4.38;1.60;;;;;;;17.12;61.08;101669.69;4932991;28;124239;-68
2021/12/31 05:22:34;;;;;;;3.95;1.60;;;;;;;17.14;60.62;101666.91;4949973;28;123727;-68
2021/12/31 05:25:01;;;;;;;4.47;1.80;;;;;;;17.14;60.86;101664.25;4950128;28;114410;-68
2021/12/31 05:27:28;;;;;;;4.68;1.65;;;;;;;17.15;60.92;101660.59;4934243;28;113973;-67
2021/12/31 05:29:55;;;;;;;4.70;2.10;;;;;;;17.15;60.74;101665.94;4951019;28;124192;-68
2021/12/31 05:32:22;;;;;;;4.97;1.70;;;;;;;17.15;60.65;101657.91;4951483;28;122886;-67
2021/12/31 05:34:49;;;;;;;4.35;1.80;;;;;;;17.13;60.80;101652.66;4951770;28;114490;-68
2021/12/31 05:37:16;;;;;;;3.53;1.73;;;;;;;17.14;60.69;101653.53;4951739;28;113957;-72
2021/12/31 05:39:44;;;;;;;4.38;1.75;;;;;;;17.14;60.69;101642.84;4947126;28;123942;-69
2021/12/31 05:42:12;;;;;;;4.65;1.65;;;;;;;17.14;60.78;101634.81;4950772;28;125001;-68
2021/12/31 05:44:39;;;;;;;4.90;1.70;;;;;;;17.14;60.68;101629.44;4950465;28;115455;-68
2021/12/31 05:47:06;;;;;;;3.72;1.50;;;;;;;17.14;60.74;101626.78;4951188;28;114842;-68
2021/12/31 05:49:34;;;;;;;5.43;1.75;;;;;;;17.14;60.54;101626.78;4941749;28;123357;-68
2021/12/31 05:52:01;;;;;;;3.08;1.55;;;;;;;17.12;60.58;101618.81;4950559;28;123718;-68
2021/12/31 05:54:28;;;;;;;5.10;1.55;;;;;;;17.13;60.55;101614.31;4949226;28;113462;-67
2021/12/31 05:56:55;;;;;;;4.43;1.58;;;;;;;17.11;60.54;101616.22;4950920;28;113634;-68
2021/12/31 05:59:22;;;;;;;5.68;1.67;;;;;;;17.11;60.47;101610.88;4949467;28;123602;-67
2021/12/31 06:01:50;;;;;;;4.25;1.67;;;;;;;17.11;60.16;101616.22;4950968;28;123631;-68
2021/12/31 06:04:17;;;;;;;3.72;1.42;;;;;;;17.09;60.18;101612.78;4949654;28;112298;-68
2021/12/31 06:06:44;;;;;;;4.05;1.60;;;;;;;17.08;60.14;101613.72;4948666;28;113730;-68
2021/12/31 06:09:13;;;;;;;4.90;1.45;;;;;;;17.06;60.27;101618.31;4949941;28;123980;-68
2021/12/31 06:11:41;;;;;;;2.90;1.13;;;;;;;17.04;60.21;101630.94;4932471;28;122853;-68
2021/12/31 06:14:09;;;;;;;4.15;1.50;;;;;;;17.03;60.18;101623.88;4949110;28;113294;-68
2021/12/31 06:16:42;;;;;;;4.50;1.33;;;;;;;17.01;60.17;101631.09;4950896;28;114880;-68
2021/12/31 06:19:11;;;;;;;3.15;1.50;;;;;;;16.98;60.20;101633.97;4946706;28;124464;-68
2021/12/31 06:21:40;;;;;;;2.35;1.45;;;;;;;16.97;59.90;101630.44;4949901;28;124530;-68
2021/12/31 06:24:08;;;;;;;4.72;1.50;;;;;;;16.95;59.97;101631.47;4948319;28;114469;-68
2021/12/31 06:26:36;;;;;;;3.25;1.42;;;;;;;16.91;59.90;101637.03;4951286;28;113613;-68
2021/12/31 06:29:04;;;;;;;3.17;1.50;;;;;;;16.89;60.06;101641.59;4947885;28;124650;-68
2021/12/31 06:31:31;;;;;;;3.45;1.30;;;;;;;16.87;60.07;101646.16;4950210;28;123668;-68
2021/12/31 06:33:58;;;;;;;3.25;1.30;;;;;;;16.84;59.93;101649.03;4948482;28;114088;-68
2021/12/31 06:36:25;;;;;;;2.83;1.30;;;;;;;16.81;59.91;101662.56;4950872;28;114885;-67
2021/12/31 06:38:53;;;;;;;2.47;1.40;;;;;;;16.81;59.84;101657.19;4950318;28;124034;-68
2021/12/31 06:41:20;;;;;;;2.80;1.30;;;;;;;16.78;59.89;101662.72;4948843;28;122821;-68
2021/12/31 06:43:48;;;;;;;3.70;1.40;;;;;;;16.75;59.93;101665.59;4950727;28;113390;-68
2021/12/31 06:46:15;;;;;;;3.08;1.40;;;;;;;16.74;59.97;101650.47;4950868;28;113878;-69
2021/12/31 06:48:42;;;;;;;4.90;1.60;;;;;;;16.71;59.92;101667.56;4949705;28;124304;-68
2021/12/31 06:51:10;;;;;;;4.57;1.50;;;;;;;16.71;59.79;101661.38;4948318;28;123056;-69
2021/12/31 06:53:38;;;;;;;3.35;1.42;;;;;;;16.68;59.82;101669.56;4950125;28;114330;-69
2021/12/31 06:56:06;;;;;;;2.58;1.38;;;;;;;16.66;59.90;101666.13;4932207;28;113168;-68
2021/12/31 06:58:33;;;;;;;4.25;1.48;;;;;;;16.63;59.81;101668.97;4949505;28;123802;-68
2021/12/31 07:01:00;;;;;;;3.00;1.38;;;;;;;16.60;59.83;101674.50;4947954;28;124408;-68
2021/12/31 07:03:28;;;;;;;5.13;1.52;;;;;;;16.56;59.89;101663.13;4948436;28;114496;-69
2021/12/31 07:05:55;;;;;;;4.25;1.90;;;;;;;16.53;59.91;101663.28;4948055;28;113998;-68
2021/12/31 07:08:24;;;;;;;4.85;1.50;;;;;;;16.49;59.92;101662.59;4948576;28;124083;-69
2021/12/31 07:10:51;;;;;;;3.22;1.60;;;;;;;16.46;59.97;101657.44;4949494;28;123880;-68
2021/12/31 07:13:19;;;;;;;3.97;1.55;;;;;;;16.43;59.84;101668.28;4948040;28;113461;-68
2021/12/31 07:15:51;;;;;;;3.45;1.60;;;;;;;16.40;59.97;101657.75;4932171;28;113239;-69
2021/12/31 07:18:20;;;;;;;3.60;1.60;;;;;;;16.38;59.95;101664.16;4929889;28;124038;-68
2021/12/31 07:20:47;;;;;;;3.53;1.70;;;;;;;16.34;59.94;101663.47;4947998;28;124410;-68
2021/12/31 07:23:17;;;;;;;4.50;1.70;;;;;;;16.31;59.95;101664.50;4948837;28;115837;-68
2021/12/31 07:25:45;;;;;;;7.10;1.77;;;;;;;16.28;60.01;101664.66;4945462;28;114820;-69
2021/12/31 07:28:14;;;;;;;4.57;1.70;;;;;;;16.26;60.11;101644.34;4947942;28;123793;-68
2021/12/31 07:30:42;;;;;;;2.25;1.50;;;;;;;16.23;60.04;101639.13;4944582;28;123751;-69
2021/12/31 07:33:21;;;;;;;4.47;1.70;;;;;;;16.20;60.02;101647.31;4950314;28;114611;-68
2021/12/31 07:35:49;;;;;;;3.00;1.50;;;;;;;16.19;60.15;101648.28;4948950;28;114286;-69
2021/12/31 07:38:20;;;;;;;3.28;1.40;;;;;;;16.17;60.11;101656.38;4934205;28;122762;-68
2021/12/31 07:40:50;;;;;;;3.80;1.92;;;;;;;16.14;60.14;101662.78;4933111;28;123917;-68
2021/12/31 07:43:19;;;;;;;4.63;1.50;;;;;;;16.13;60.22;101666.38;4948167;28;114718;-69
2021/12/31 07:45:48;;;;;;;3.83;1.50;;;;;;;16.11;60.10;101668.28;4948882;28;113495;-68
2021/12/31 07:48:16;;;;;;;3.53;1.50;;;;;;;16.10;60.07;101666.53;4953022;28;123730;-70
2021/12/31 07:50:44;;;;;;;3.97;1.55;;;;;;;16.09;60.21;101663.97;4951267;28;123520;-68
2021/12/31 07:53:11;;;;;;;4.50;1.40;;;;;;;16.08;60.20;101673.78;4950938;28;114552;-69
2021/12/31 07:55:38;;;;;;;4.50;1.70;;;;;;;16.07;60.05;101677.41;4950382;28;113896;-68
2021/12/31 07:58:05;;;;;;;2.17;1.50;;;;;;;16.05;60.17;101678.44;4948454;28;123793;-68
2021/12/31 08:00:34;;;;;;;4.35;1.50;;;;;;;16.04;60.35;101674.91;4948098;28;124774;-68
2021/12/31 08:03:02;;;;;;;4.57;1.70;;;;;;;16.03;60.23;101685.66;4931805;28;114299;-68
2021/12/31 08:05:30;;;;;;;4.88;1.70;;;;;;;16.02;60.18;101698.16;4949813;28;113815;-69
2021/12/31 08:08:00;;;;;;;3.05;1.65;;;;;;;16.01;60.12;101688.44;4930718;28;122869;-68
2021/12/31 08:10:27;;;;;;;4.47;1.80;;;;;;;16.00;60.42;101697.41;4929433;28;124546;-72
2021/12/31 08:13:14;;;;;;;4.18;1.55;;;;;;;16.00;60.40;101692.06;4947897;28;115028;-68
2021/12/31 08:15:41;;;;;;;3.58;1.58;;;;;;;15.97;60.20;101692.19;4949011;28;114827;-68
2021/12/31 08:18:08;;;;;;;4.53;1.55;;;;;;;15.97;60.17;101694.88;4952213;28;124298;-68
2021/12/31 08:20:36;;;;;;;4.03;1.73;;;;;;;15.96;60.24;101706.53;4918501;28;122688;-68
2021/12/31 08:23:12;;;;;;;5.07;1.70;;;;;;;15.97;60.28;101702.88;4952213;28;115112;-68
2021/12/31 08:25:40;;;;;;;2.13;1.45;;;;;;;15.96;60.19;101679.81;4934770;28;113525;-69
2021/12/31 08:28:08;;;;;;;3.08;1.60;;;;;;;15.96;60.36;101679.81;4948398;28;123404;-69
2021/12/31 08:30:35;;;;;;;2.65;1.38;;;;;;;15.97;60.32;101676.19;4951873;28;124567;-69
2021/12/31 08:33:03;;;;;;;4.47;1.90;;;;;;;15.98;60.15;101682.41;4952225;28;114523;-68
2021/12/31 08:35:30;;;;;;;3.63;1.90;;;;;;;15.97;60.15;101676.19;4950939;28;114004;-69
2021/12/31 08:37:58;;;;;;;2.80;1.50;;;;;;;15.98;60.28;101683.25;4950438;28;124621;-69
2021/12/31 08:40:25;;;;;;;3.28;1.52;;;;;;;16.00;60.33;101676.03;4949288;28;124845;-68
2021/12/31 08:42:53;;;;;;;3.08;1.40;;;;;;;15.98;59.81;101661.88;4952430;28;114335;-68
2021/12/31 08:45:30;;;;;;;2.70;1.50;;;;;;;15.99;60.30;101665.41;4932929;28;113722;-69
2021/12/31 08:47:59;;;;;;;3.63;1.38;;;;;;;15.98;60.14;101667.22;4951776;28;124099;-68
2021/12/31 08:50:26;;;;;;;4.78;1.48;;;;;;;16.00;60.14;101665.34;4944603;28;124052;-69
2021/12/31 08:52:53;;;;;;;2.72;1.33;;;;;;;16.02;60.25;101674.13;4934268;28;113258;-69
2021/12/31 08:55:21;;;;;;;4.03;1.45;;;;;;;16.04;60.20;101666.03;4950283;28;113166;-68
2021/12/31 08:57:48;;;;;;;3.03;1.50;;;;;;;16.06;60.22;101670.34;4951751;28;124742;-68
2021/12/31 09:00:16;;;;;;;4.68;1.60;;;;;;;16.07;60.10;101677.41;4930345;28;123564;-68
2021/12/31 09:02:46;;;;;;;2.72;1.42;;;;;;;16.10;60.06;101677.22;4951155;28;116107;-68
2021/12/31 09:05:13;;;;;;;3.80;1.40;;;;;;;16.12;60.08;101678.03;4952119;28;114532;-69
2021/12/31 09:07:40;;;;;;;2.67;1.17;;;;;;;16.14;59.96;101662.78;4931473;28;123152;-68
2021/12/31 09:10:09;;;;;;;5.00;1.77;;;;;;;16.17;60.00;101663.53;4951288;28;123844;-68
2021/12/31 09:12:37;;;;;;;3.50;1.50;;;;;;;16.19;59.99;101661.66;4951365;28;114521;-68
2021/12/31 09:15:06;;;;;;;6.88;1.60;;;;;;;16.21;59.98;101667.78;4951851;28;114727;-69
2021/12/31 09:17:33;;;;;;;3.05;1.55;;;;;;;16.24;59.89;101656.91;4951563;28;124798;-69
2021/12/31 09:20:00;;;;;;;4.63;1.63;;;;;;;16.26;59.88;101660.38;4950028;28;123555;-69
2021/12/31 09:22:27;;;;;;;3.28;1.45;;;;;;;16.28;59.86;101653.13;4918602;28;113020;-69
2021/12/31 09:24:55;;;;;;;3.78;1.38;;;;;;;16.29;59.73;101645.03;4950026;28;113343;-69
2021/12/31 09:27:22;;;;;;;2.40;1.40;;;;;;;16.32;59.68;101654.66;4950676;28;124857;-69
2021/12/31 09:29:50;;;;;;;2.38;1.50;;;;;;;16.32;59.70;101666.22;4948565;28;122853;-69
2021/12/31 09:32:17;;;;;;;2.75;1.33;;;;;;;16.36;59.58;101661.56;4949980;28;113160;-69
2021/12/31 09:34:44;;;;;;;2.75;1.40;;;;;;;16.37;59.64;101660.63;4951406;28;114939;-68
2021/12/31 09:37:11;;;;;;;2.08;1.20;;;;;;;16.38;59.42;101665.00;4951192;28;124760;-68
2021/12/31 09:39:38;;;;;;;2.70;1.40;;;;;;;16.39;59.71;101650.72;4950621;28;123704;-69
2021/12/31 09:42:07;;;;;;;2.60;1.40;;;;;;;16.41;59.54;101654.16;4950137;28;113290;-69
2021/12/31 09:44:35;;;;;;;2.95;1.45;;;;;;;16.43;59.35;101670.97;4951652;28;113572;-68
2021/12/31 09:47:10;;;;;;;2.60;1.30;;;;;;;16.44;59.62;101664.66;4950582;28;123910;-69
2021/12/31 09:49:38;;;;;;;2.50;1.53;;;;;;;16.47;59.46;101675.19;4950183;28;124247;-68
2021/12/31 09:52:10;;;;;;;2.13;1.40;;;;;;;16.48;59.35;101695.66;4950242;28;115333;-69
2021/12/31 09:54:41;;;;;;;2.25;1.38;;;;;;;16.48;59.52;101719.72;4950798;28;114768;-68
2021/12/31 09:57:18;;;;;;;2.97;1.45;;;;;;;16.51;59.36;101714.16;4949762;28;123278;-68
2021/12/31 09:59:46;;;;;;;2.70;1.40;;;;;;;16.54;59.34;101707.81;4949619;28;124136;-68
2021/12/31 10:02:15;;;;;;;3.05;1.45;;;;;;;16.56;59.16;101703.22;4917404;28;113613;-69
2021/12/31 10:04:52;;;;;;;3.90;1.52;;;;;;;16.57;59.28;101722.81;4933091;28;112569;-68
2021/12/31 10:07:21;;;;;;;5.50;1.50;;;;;;;16.60;59.19;101714.63;4949069;28;123550;-68
2021/12/31 10:10:06;;;;;;;2.60;1.45;;;;;;;16.59;59.38;101705.72;4946844;28;124804;-68
2021/12/31 10:12:56;;;;;;;2.47;1.30;;;;;;;16.61;59.11;101716.31;4949158;28;114317;-67
2021/12/31 10:15:25;;;;;;;3.05;1.42;;;;;;;16.62;59.01;101715.41;4948866;28;112987;-68
2021/12/31 10:17:53;;;;;;;2.97;1.35;;;;;;;16.64;59.13;101702.78;4942765;28;123171;-68
2021/12/31 10:20:22;;;;;;;4.13;1.50;;;;;;;16.64;59.12;101692.94;4951260;28;124771;-68
2021/12/31 10:22:49;;;;;;;2.58;1.40;;;;;;;16.65;59.05;101688.44;4950575;28;113060;-68
2021/12/31 10:25:25;;;;;;;2.90;1.42;;;;;;;16.67;59.17;101702.59;4951174;28;114214;-69
2021/12/31 10:28:08;;;;;;;4.20;1.50;;;;;;;16.68;58.90;101712.38;4948751;28;123759;-68
2021/12/31 10:30:35;;;;;;;3.08;1.58;;;;;;;16.68;58.94;101690.97;4933879;28;122830;-70
2021/12/31 10:33:03;;;;;;;3.92;1.70;;;;;;;16.67;58.87;101675.84;4951896;28;114893;-68
2021/12/31 10:35:37;;;;;;;2.85;1.35;;;;;;;16.68;58.89;101677.59;4952120;28;114271;-71
2021/12/31 10:38:06;;;;;;;3.70;1.47;;;;;;;16.67;58.84;101665.16;4948241;28;124663;-68
2021/12/31 10:40:43;;;;;;;3.70;1.30;;;;;;;16.67;58.83;101675.84;4950119;28;123583;-69
2021/12/31 10:43:16;;;;;;;3.25;1.40;;;;;;;16.66;58.84;101679.50;4949291;28;115329;-68
2021/12/31 10:46:08;;;;;;;5.93;2.03;;;;;;;16.66;58.70;101679.50;4948236;28;115236;-68
2021/12/31 10:48:41;;;;;;;3.65;1.65;;;;;;;16.67;58.95;101681.19;4949350;28;124321;-69
2021/12/31 10:51:10;;;;;;;2.58;1.65;;;;;;;16.69;58.90;101676.66;4933354;28;125144;-69
2021/12/31 10:53:38;;;;;;;3.65;1.48;;;;;;;16.70;58.85;101681.03;4950369;28;114234;-69
2021/12/31 10:56:13;;;;;;;2.58;1.58;;;;;;;16.72;58.80;101684.47;4951995;28;113969;-69
2021/12/31 10:58:45;;;;;;;2.40;1.48;;;;;;;16.72;58.99;101680.00;4951161;28;123929;-69
2021/12/31 11:01:15;;;;;;;2.20;1.42;;;;;;;16.73;58.85;101681.72;4933524;28;123273;-69
2021/12/31 11:03:43;;;;;;;2.30;1.40;;;;;;;16.74;58.82;101682.59;4951925;28;114339;-69
2021/12/31 11:06:13;;;;;;;4.22;1.60;;;;;;;16.76;58.98;101680.69;4949685;28;113932;-69
2021/12/31 11:08:49;;;;;;;3.08;1.52;;;;;;;16.78;58.79;101673.41;4949802;28;125643;-69
2021/12/31 11:11:19;;;;;;;3.20;1.60;;;;;;;16.79;58.79;101668.94;4953927;28;123597;-69
2021/12/31 11:13:49;;;;;;;4.20;1.35;;;;;;;16.80;58.72;101687.59;4958368;28;113801;-68
2021/12/31 11:16:16;;;;;;;2.60;1.52;;;;;;;16.81;58.85;101677.75;4935968;28;113604;-69
2021/12/31 11:18:43;;;;;;;2.50;1.40;;;;;;;16.82;58.80;101661.66;4952170;28;125128;-69
2021/12/31 11:21:12;;;;;;;3.72;1.60;;;;;;;16.84;58.89;101657.06;4950946;28;124475;-69
2021/12/31 11:23:42;;;;;;;3.92;1.50;;;;;;;16.85;58.70;101648.06;4953270;28;114829;-69
2021/12/31 11:26:13;;;;;;;3.35;1.60;;;;;;;16.89;58.74;101648.75;4955622;28;113045;-69